YPAD

Adelaide International Airport

Airport
ICAO code
YPAD
IATA Code
ADL
Summary
ICAO Region
APAC
ICAO Territory
Location

, South Australia

Serving
Adelaide
Elevation
20 ft
Coordinates
34° 56' 42" S , 138° 31' 50" E
Metar
Observation
YPAD 061630Z AUTO 11007KT 9999 // NCD 18/12 Q1016 RF00.0/000.0
Station
Adelaide Airport
Date/Time
2023-02-06 17:30:00
Wind direction
110°
Wind speed
07 kts
Lowest cloud amount
no clouds detected
Temperature
18°C
Dew point
12°C
Humidity
67%
QNH
1016 hPa
Weather condition
n/a

SKYbrary Partners:

Safety knowledge contributed by: